sensor_id;sensor_type;location;lat;lon;timestamp;P1;durP1;ratioP1;P2;durP2;ratioP2
13408;SDS011;6775;49.574;11.170;2023-06-26T00:00:38;5.20;;;4.70;;
13408;SDS011;6775;49.574;11.170;2023-06-26T00:03:06;5.33;;;4.70;;
13408;SDS011;6775;49.574;11.170;2023-06-26T00:05:36;4.80;;;4.33;;
13408;SDS011;6775;49.574;11.170;2023-06-26T00:08:04;6.13;;;5.00;;
13408;SDS011;6775;49.574;11.170;2023-06-26T00:10:32;5.27;;;4.77;;
13408;SDS011;6775;49.574;11.170;2023-06-26T00:13:00;5.83;;;4.87;;
13408;SDS011;6775;49.574;11.170;2023-06-26T00:15:28;4.93;;;4.43;;
13408;SDS011;6775;49.574;11.170;2023-06-26T00:17:57;5.63;;;4.87;;
13408;SDS011;6775;49.574;11.170;2023-06-26T00:20:26;4.63;;;4.23;;
13408;SDS011;6775;49.574;11.170;2023-06-26T00:22:55;5.03;;;4.53;;
13408;SDS011;6775;49.574;11.170;2023-06-26T00:25:24;6.40;;;4.60;;
13408;SDS011;6775;49.574;11.170;2023-06-26T00:27:52;4.77;;;4.27;;
13408;SDS011;6775;49.574;11.170;2023-06-26T00:30:20;4.93;;;4.43;;
13408;SDS011;6775;49.574;11.170;2023-06-26T00:32:48;5.13;;;4.33;;
13408;SDS011;6775;49.574;11.170;2023-06-26T00:35:17;5.77;;;4.93;;
13408;SDS011;6775;49.574;11.170;2023-06-26T00:37:44;5.67;;;4.43;;
13408;SDS011;6775;49.574;11.170;2023-06-26T00:40:14;5.10;;;4.60;;
13408;SDS011;6775;49.574;11.170;2023-06-26T00:42:43;5.60;;;4.90;;
13408;SDS011;6775;49.574;11.170;2023-06-26T00:45:10;5.93;;;4.97;;
13408;SDS011;6775;49.574;11.170;2023-06-26T00:47:38;5.70;;;5.10;;
13408;SDS011;6775;49.574;11.170;2023-06-26T00:50:06;5.90;;;5.30;;
13408;SDS011;6775;49.574;11.170;2023-06-26T00:52:35;5.50;;;4.77;;
13408;SDS011;6775;49.574;11.170;2023-06-26T00:55:04;5.80;;;4.90;;
13408;SDS011;6775;49.574;11.170;2023-06-26T00:57:34;5.57;;;5.00;;
13408;SDS011;6775;49.574;11.170;2023-06-26T01:00:02;6.67;;;5.03;;
13408;SDS011;6775;49.574;11.170;2023-06-26T01:02:31;6.57;;;5.37;;
13408;SDS011;6775;49.574;11.170;2023-06-26T01:05:00;5.93;;;5.20;;
13408;SDS011;6775;49.574;11.170;2023-06-26T01:07:32;5.77;;;5.17;;
13408;SDS011;6775;49.574;11.170;2023-06-26T01:10:02;6.27;;;5.27;;
13408;SDS011;6775;49.574;11.170;2023-06-26T01:12:31;5.20;;;4.70;;
13408;SDS011;6775;49.574;11.170;2023-06-26T01:15:01;6.23;;;5.00;;
13408;SDS011;6775;49.574;11.170;2023-06-26T01:17:30;5.50;;;4.70;;
13408;SDS011;6775;49.574;11.170;2023-06-26T01:19:59;7.07;;;4.90;;
13408;SDS011;6775;49.574;11.170;2023-06-26T01:22:36;6.30;;;4.90;;
13408;SDS011;6775;49.574;11.170;2023-06-26T01:25:12;5.13;;;4.60;;
13408;SDS011;6775;49.574;11.170;2023-06-26T01:27:46;5.17;;;4.50;;
13408;SDS011;6775;49.574;11.170;2023-06-26T01:30:17;5.40;;;4.90;;
13408;SDS011;6775;49.574;11.170;2023-06-26T01:32:46;5.87;;;5.27;;
13408;SDS011;6775;49.574;11.170;2023-06-26T01:35:15;5.63;;;5.13;;
13408;SDS011;6775;49.574;11.170;2023-06-26T01:37:43;5.47;;;4.97;;
13408;SDS011;6775;49.574;11.170;2023-06-26T01:40:11;5.40;;;4.60;;
13408;SDS011;6775;49.574;11.170;2023-06-26T01:42:39;6.17;;;5.57;;
13408;SDS011;6775;49.574;11.170;2023-06-26T01:45:10;5.70;;;5.07;;
13408;SDS011;6775;49.574;11.170;2023-06-26T01:47:44;6.03;;;5.07;;
13408;SDS011;6775;49.574;11.170;2023-06-26T01:50:17;6.03;;;5.40;;
13408;SDS011;6775;49.574;11.170;2023-06-26T01:52:49;6.40;;;5.50;;
13408;SDS011;6775;49.574;11.170;2023-06-26T01:55:28;7.10;;;5.50;;
13408;SDS011;6775;49.574;11.170;2023-06-26T01:58:02;7.70;;;5.30;;
13408;SDS011;6775;49.574;11.170;2023-06-26T02:00:32;5.47;;;4.57;;
13408;SDS011;6775;49.574;11.170;2023-06-26T02:03:00;5.70;;;4.50;;
13408;SDS011;6775;49.574;11.170;2023-06-26T02:05:29;7.33;;;5.30;;
13408;SDS011;6775;49.574;11.170;2023-06-26T02:07:57;6.37;;;4.87;;
13408;SDS011;6775;49.574;11.170;2023-06-26T02:10:27;6.90;;;5.20;;
13408;SDS011;6775;49.574;11.170;2023-06-26T02:12:55;5.83;;;5.10;;
13408;SDS011;6775;49.574;11.170;2023-06-26T02:15:23;7.17;;;5.50;;
13408;SDS011;6775;49.574;11.170;2023-06-26T02:17:52;7.77;;;5.13;;
13408;SDS011;6775;49.574;11.170;2023-06-26T02:20:20;5.87;;;5.27;;
13408;SDS011;6775;49.574;11.170;2023-06-26T02:22:47;5.57;;;4.97;;
13408;SDS011;6775;49.574;11.170;2023-06-26T02:25:16;5.97;;;5.30;;
13408;SDS011;6775;49.574;11.170;2023-06-26T02:27:44;6.67;;;5.53;;
13408;SDS011;6775;49.574;11.170;2023-06-26T02:30:12;6.10;;;5.20;;
13408;SDS011;6775;49.574;11.170;2023-06-26T02:32:40;6.20;;;5.13;;
13408;SDS011;6775;49.574;11.170;2023-06-26T02:35:09;6.30;;;5.70;;
13408;SDS011;6775;49.574;11.170;2023-06-26T02:37:37;6.20;;;5.20;;
13408;SDS011;6775;49.574;11.170;2023-06-26T02:40:05;7.60;;;5.20;;
13408;SDS011;6775;49.574;11.170;2023-06-26T02:42:35;6.23;;;5.37;;
13408;SDS011;6775;49.574;11.170;2023-06-26T02:45:04;6.93;;;5.20;;
13408;SDS011;6775;49.574;11.170;2023-06-26T02:47:33;5.63;;;5.03;;
13408;SDS011;6775;49.574;11.170;2023-06-26T02:50:01;7.20;;;5.60;;
13408;SDS011;6775;49.574;11.170;2023-06-26T02:52:30;6.63;;;5.23;;
13408;SDS011;6775;49.574;11.170;2023-06-26T02:54:58;6.10;;;5.13;;
13408;SDS011;6775;49.574;11.170;2023-06-26T02:57:25;6.77;;;5.50;;
13408;SDS011;6775;49.574;11.170;2023-06-26T02:59:53;5.30;;;4.80;;
13408;SDS011;6775;49.574;11.170;2023-06-26T03:02:21;6.10;;;5.03;;
13408;SDS011;6775;49.574;11.170;2023-06-26T03:04:49;6.67;;;5.50;;
13408;SDS011;6775;49.574;11.170;2023-06-26T03:07:17;5.77;;;5.10;;
13408;SDS011;6775;49.574;11.170;2023-06-26T03:09:46;7.13;;;5.50;;
13408;SDS011;6775;49.574;11.170;2023-06-26T03:12:14;6.50;;;5.30;;
13408;SDS011;6775;49.574;11.170;2023-06-26T03:14:42;8.57;;;5.17;;
13408;SDS011;6775;49.574;11.170;2023-06-26T03:17:12;6.03;;;4.83;;
13408;SDS011;6775;49.574;11.170;2023-06-26T03:19:40;6.83;;;5.40;;
13408;SDS011;6775;49.574;11.170;2023-06-26T03:22:08;5.67;;;5.17;;
13408;SDS011;6775;49.574;11.170;2023-06-26T03:24:36;6.23;;;5.17;;
13408;SDS011;6775;49.574;11.170;2023-06-26T03:27:06;5.30;;;4.80;;
13408;SDS011;6775;49.574;11.170;2023-06-26T03:29:35;6.30;;;5.20;;
13408;SDS011;6775;49.574;11.170;2023-06-26T03:32:03;5.93;;;5.03;;
13408;SDS011;6775;49.574;11.170;2023-06-26T03:34:32;5.37;;;4.80;;
13408;SDS011;6775;49.574;11.170;2023-06-26T03:37:00;5.90;;;5.30;;
13408;SDS011;6775;49.574;11.170;2023-06-26T03:39:28;5.60;;;5.00;;
13408;SDS011;6775;49.574;11.170;2023-06-26T03:41:56;5.97;;;5.30;;
13408;SDS011;6775;49.574;11.170;2023-06-26T03:44:27;6.03;;;5.13;;
13408;SDS011;6775;49.574;11.170;2023-06-26T03:46:55;6.80;;;5.90;;
13408;SDS011;6775;49.574;11.170;2023-06-26T03:49:23;5.60;;;4.87;;
13408;SDS011;6775;49.574;11.170;2023-06-26T03:51:51;6.20;;;5.60;;
13408;SDS011;6775;49.574;11.170;2023-06-26T03:54:19;6.07;;;5.40;;
13408;SDS011;6775;49.574;11.170;2023-06-26T03:56:47;6.13;;;5.07;;
13408;SDS011;6775;49.574;11.170;2023-06-26T03:59:14;5.63;;;4.97;;
13408;SDS011;6775;49.574;11.170;2023-06-26T04:01:43;7.20;;;4.67;;
13408;SDS011;6775;49.574;11.170;2023-06-26T04:04:11;5.90;;;5.03;;
13408;SDS011;6775;49.574;11.170;2023-06-26T04:06:39;7.60;;;5.27;;
13408;SDS011;6775;49.574;11.170;2023-06-26T04:09:07;7.07;;;5.80;;
13408;SDS011;6775;49.574;11.170;2023-06-26T04:11:35;8.00;;;5.93;;
13408;SDS011;6775;49.574;11.170;2023-06-26T04:14:03;5.80;;;5.13;;
13408;SDS011;6775;49.574;11.170;2023-06-26T04:16:31;6.73;;;5.57;;
13408;SDS011;6775;49.574;11.170;2023-06-26T04:19:00;6.70;;;6.07;;
13408;SDS011;6775;49.574;11.170;2023-06-26T04:21:28;5.87;;;5.10;;
13408;SDS011;6775;49.574;11.170;2023-06-26T04:23:56;6.33;;;5.67;;
13408;SDS011;6775;49.574;11.170;2023-06-26T04:26:24;6.80;;;5.53;;
13408;SDS011;6775;49.574;11.170;2023-06-26T04:28:53;6.20;;;5.27;;
13408;SDS011;6775;49.574;11.170;2023-06-26T04:31:21;6.37;;;4.97;;
13408;SDS011;6775;49.574;11.170;2023-06-26T04:33:49;7.27;;;5.50;;
13408;SDS011;6775;49.574;11.170;2023-06-26T04:36:22;5.73;;;4.87;;
13408;SDS011;6775;49.574;11.170;2023-06-26T04:38:54;5.83;;;4.57;;
13408;SDS011;6775;49.574;11.170;2023-06-26T04:41:22;5.23;;;4.73;;
13408;SDS011;6775;49.574;11.170;2023-06-26T04:43:50;5.20;;;4.50;;
13408;SDS011;6775;49.574;11.170;2023-06-26T04:46:18;5.00;;;4.50;;
13408;SDS011;6775;49.574;11.170;2023-06-26T04:48:46;5.40;;;4.60;;
13408;SDS011;6775;49.574;11.170;2023-06-26T04:51:14;4.93;;;4.53;;
13408;SDS011;6775;49.574;11.170;2023-06-26T04:53:43;4.33;;;3.93;;
13408;SDS011;6775;49.574;11.170;2023-06-26T04:56:11;6.47;;;4.20;;
13408;SDS011;6775;49.574;11.170;2023-06-26T04:58:39;4.13;;;3.73;;
13408;SDS011;6775;49.574;11.170;2023-06-26T05:01:06;4.63;;;4.23;;
13408;SDS011;6775;49.574;11.170;2023-06-26T05:03:35;5.57;;;4.70;;
13408;SDS011;6775;49.574;11.170;2023-06-26T05:06:03;4.40;;;4.00;;
13408;SDS011;6775;49.574;11.170;2023-06-26T05:08:35;3.70;;;3.33;;
13408;SDS011;6775;49.574;11.170;2023-06-26T05:11:04;4.00;;;3.57;;
13408;SDS011;6775;49.574;11.170;2023-06-26T05:13:32;3.60;;;3.13;;
13408;SDS011;6775;49.574;11.170;2023-06-26T05:16:00;4.40;;;4.00;;
13408;SDS011;6775;49.574;11.170;2023-06-26T05:18:28;4.70;;;3.83;;
13408;SDS011;6775;49.574;11.170;2023-06-26T05:20:56;4.07;;;3.67;;
13408;SDS011;6775;49.574;11.170;2023-06-26T05:23:24;4.00;;;3.60;;
13408;SDS011;6775;49.574;11.170;2023-06-26T05:25:53;4.33;;;3.53;;
13408;SDS011;6775;49.574;11.170;2023-06-26T05:28:26;4.30;;;3.87;;
13408;SDS011;6775;49.574;11.170;2023-06-26T05:30:57;4.83;;;4.13;;
13408;SDS011;6775;49.574;11.170;2023-06-26T05:33:26;3.30;;;3.00;;
13408;SDS011;6775;49.574;11.170;2023-06-26T05:35:54;3.77;;;3.37;;
13408;SDS011;6775;49.574;11.170;2023-06-26T05:38:23;4.37;;;3.70;;
13408;SDS011;6775;49.574;11.170;2023-06-26T05:40:51;4.63;;;3.80;;
13408;SDS011;6775;49.574;11.170;2023-06-26T05:43:20;4.00;;;3.60;;
13408;SDS011;6775;49.574;11.170;2023-06-26T05:45:55;3.83;;;3.43;;
13408;SDS011;6775;49.574;11.170;2023-06-26T05:48:23;3.50;;;3.20;;
13408;SDS011;6775;49.574;11.170;2023-06-26T05:50:51;4.10;;;3.33;;
13408;SDS011;6775;49.574;11.170;2023-06-26T05:53:20;4.77;;;4.27;;
13408;SDS011;6775;49.574;11.170;2023-06-26T05:55:48;3.77;;;3.00;;
13408;SDS011;6775;49.574;11.170;2023-06-26T05:58:16;3.60;;;3.30;;
13408;SDS011;6775;49.574;11.170;2023-06-26T06:00:46;4.50;;;3.93;;
13408;SDS011;6775;49.574;11.170;2023-06-26T06:03:15;3.40;;;3.10;;
13408;SDS011;6775;49.574;11.170;2023-06-26T06:05:43;4.20;;;3.30;;
13408;SDS011;6775;49.574;11.170;2023-06-26T06:08:11;3.80;;;3.40;;
13408;SDS011;6775;49.574;11.170;2023-06-26T06:10:39;4.13;;;3.43;;
13408;SDS011;6775;49.574;11.170;2023-06-26T06:13:07;4.27;;;3.80;;
13408;SDS011;6775;49.574;11.170;2023-06-26T06:15:35;4.07;;;3.43;;
13408;SDS011;6775;49.574;11.170;2023-06-26T06:18:03;4.10;;;3.70;;
13408;SDS011;6775;49.574;11.170;2023-06-26T06:20:32;4.93;;;4.33;;
13408;SDS011;6775;49.574;11.170;2023-06-26T06:23:00;4.93;;;4.40;;
13408;SDS011;6775;49.574;11.170;2023-06-26T06:25:28;3.83;;;3.53;;
13408;SDS011;6775;49.574;11.170;2023-06-26T06:27:56;4.17;;;3.70;;
13408;SDS011;6775;49.574;11.170;2023-06-26T06:30:24;4.13;;;3.70;;
13408;SDS011;6775;49.574;11.170;2023-06-26T06:33:09;3.60;;;3.30;;
13408;SDS011;6775;49.574;11.170;2023-06-26T06:35:38;3.50;;;3.20;;
13408;SDS011;6775;49.574;11.170;2023-06-26T06:38:06;4.30;;;3.20;;
13408;SDS011;6775;49.574;11.170;2023-06-26T06:40:34;3.50;;;3.20;;
13408;SDS011;6775;49.574;11.170;2023-06-26T06:43:02;5.20;;;4.70;;
13408;SDS011;6775;49.574;11.170;2023-06-26T06:45:30;4.60;;;4.10;;
13408;SDS011;6775;49.574;11.170;2023-06-26T06:47:58;6.13;;;4.70;;
13408;SDS011;6775;49.574;11.170;2023-06-26T06:50:25;5.23;;;4.60;;
13408;SDS011;6775;49.574;11.170;2023-06-26T06:52:55;5.33;;;4.73;;
13408;SDS011;6775;49.574;11.170;2023-06-26T06:55:23;5.43;;;4.87;;
13408;SDS011;6775;49.574;11.170;2023-06-26T06:57:52;5.53;;;4.43;;
13408;SDS011;6775;49.574;11.170;2023-06-26T07:00:19;7.07;;;5.10;;
13408;SDS011;6775;49.574;11.170;2023-06-26T07:02:47;5.13;;;4.63;;
13408;SDS011;6775;49.574;11.170;2023-06-26T07:05:15;4.70;;;4.30;;
13408;SDS011;6775;49.574;11.170;2023-06-26T07:07:43;4.87;;;4.40;;
13408;SDS011;6775;49.574;11.170;2023-06-26T07:10:13;5.53;;;4.63;;
13408;SDS011;6775;49.574;11.170;2023-06-26T07:12:41;5.60;;;4.50;;
13408;SDS011;6775;49.574;11.170;2023-06-26T07:15:10;5.40;;;4.60;;
13408;SDS011;6775;49.574;11.170;2023-06-26T07:17:38;5.13;;;4.63;;
13408;SDS011;6775;49.574;11.170;2023-06-26T07:20:06;5.93;;;4.43;;
13408;SDS011;6775;49.574;11.170;2023-06-26T07:22:35;5.30;;;4.80;;
13408;SDS011;6775;49.574;11.170;2023-06-26T07:25:03;7.00;;;5.00;;
13408;SDS011;6775;49.574;11.170;2023-06-26T07:27:36;6.10;;;4.73;;
13408;SDS011;6775;49.574;11.170;2023-06-26T07:30:05;5.53;;;4.90;;
13408;SDS011;6775;49.574;11.170;2023-06-26T07:32:35;5.63;;;4.80;;
13408;SDS011;6775;49.574;11.170;2023-06-26T07:35:04;6.67;;;5.17;;
13408;SDS011;6775;49.574;11.170;2023-06-26T07:37:32;5.20;;;4.70;;
13408;SDS011;6775;49.574;11.170;2023-06-26T07:40:00;6.13;;;5.10;;
13408;SDS011;6775;49.574;11.170;2023-06-26T07:42:28;5.97;;;4.53;;
13408;SDS011;6775;49.574;11.170;2023-06-26T07:44:57;5.40;;;4.90;;
13408;SDS011;6775;49.574;11.170;2023-06-26T07:47:25;5.10;;;4.60;;
13408;SDS011;6775;49.574;11.170;2023-06-26T07:49:53;4.93;;;4.43;;
13408;SDS011;6775;49.574;11.170;2023-06-26T07:52:21;4.33;;;3.93;;
13408;SDS011;6775;49.574;11.170;2023-06-26T07:54:48;5.93;;;4.47;;
13408;SDS011;6775;49.574;11.170;2023-06-26T07:57:16;5.23;;;4.73;;
13408;SDS011;6775;49.574;11.170;2023-06-26T07:59:44;4.97;;;4.40;;
13408;SDS011;6775;49.574;11.170;2023-06-26T08:02:13;5.10;;;4.60;;
13408;SDS011;6775;49.574;11.170;2023-06-26T08:04:43;5.50;;;5.00;;
13408;SDS011;6775;49.574;11.170;2023-06-26T08:07:11;5.30;;;4.80;;
13408;SDS011;6775;49.574;11.170;2023-06-26T08:09:40;6.33;;;5.70;;
13408;SDS011;6775;49.574;11.170;2023-06-26T08:12:09;5.33;;;4.83;;
13408;SDS011;6775;49.574;11.170;2023-06-26T08:14:38;5.43;;;4.93;;
13408;SDS011;6775;49.574;11.170;2023-06-26T08:17:06;5.83;;;5.07;;
13408;SDS011;6775;49.574;11.170;2023-06-26T08:19:35;6.50;;;5.27;;
13408;SDS011;6775;49.574;11.170;2023-06-26T08:22:03;5.13;;;4.67;;
13408;SDS011;6775;49.574;11.170;2023-06-26T08:24:32;5.13;;;4.67;;
13408;SDS011;6775;49.574;11.170;2023-06-26T08:27:00;6.83;;;5.53;;
13408;SDS011;6775;49.574;11.170;2023-06-26T08:29:28;6.03;;;5.30;;
13408;SDS011;6775;49.574;11.170;2023-06-26T08:31:56;8.00;;;5.13;;
13408;SDS011;6775;49.574;11.170;2023-06-26T08:34:24;5.97;;;5.37;;
13408;SDS011;6775;49.574;11.170;2023-06-26T08:36:53;5.87;;;5.30;;
13408;SDS011;6775;49.574;11.170;2023-06-26T08:39:21;4.80;;;4.30;;
13408;SDS011;6775;49.574;11.170;2023-06-26T08:41:49;4.97;;;4.50;;
13408;SDS011;6775;49.574;11.170;2023-06-26T08:44:16;5.13;;;4.63;;
13408;SDS011;6775;49.574;11.170;2023-06-26T08:46:44;4.50;;;4.10;;
13408;SDS011;6775;49.574;11.170;2023-06-26T08:49:14;5.57;;;4.97;;
13408;SDS011;6775;49.574;11.170;2023-06-26T08:51:48;4.53;;;4.13;;
13408;SDS011;6775;49.574;11.170;2023-06-26T08:54:21;5.50;;;4.40;;
13408;SDS011;6775;49.574;11.170;2023-06-26T08:56:55;6.23;;;5.20;;
13408;SDS011;6775;49.574;11.170;2023-06-26T08:59:24;7.30;;;5.90;;
13408;SDS011;6775;49.574;11.170;2023-06-26T09:01:52;6.30;;;5.70;;
13408;SDS011;6775;49.574;11.170;2023-06-26T09:04:20;7.03;;;5.53;;
13408;SDS011;6775;49.574;11.170;2023-06-26T09:06:48;5.97;;;5.20;;
13408;SDS011;6775;49.574;11.170;2023-06-26T09:09:16;8.37;;;6.10;;
13408;SDS011;6775;49.574;11.170;2023-06-26T09:11:45;6.17;;;5.10;;
13408;SDS011;6775;49.574;11.170;2023-06-26T09:14:14;6.30;;;5.50;;
13408;SDS011;6775;49.574;11.170;2023-06-26T09:16:42;9.20;;;6.63;;
13408;SDS011;6775;49.574;11.170;2023-06-26T09:19:10;7.83;;;5.87;;
13408;SDS011;6775;49.574;11.170;2023-06-26T09:21:39;6.50;;;5.80;;
13408;SDS011;6775;49.574;11.170;2023-06-26T09:24:07;6.87;;;5.90;;
13408;SDS011;6775;49.574;11.170;2023-06-26T09:26:36;6.20;;;5.53;;
13408;SDS011;6775;49.574;11.170;2023-06-26T09:29:06;7.03;;;5.77;;
13408;SDS011;6775;49.574;11.170;2023-06-26T09:31:35;5.93;;;5.33;;
13408;SDS011;6775;49.574;11.170;2023-06-26T09:34:07;5.17;;;4.67;;
13408;SDS011;6775;49.574;11.170;2023-06-26T09:36:35;5.23;;;4.73;;
13408;SDS011;6775;49.574;11.170;2023-06-26T09:39:06;7.00;;;6.30;;
13408;SDS011;6775;49.574;11.170;2023-06-26T09:41:38;5.90;;;5.30;;
13408;SDS011;6775;49.574;11.170;2023-06-26T09:44:07;6.37;;;5.77;;
13408;SDS011;6775;49.574;11.170;2023-06-26T09:46:38;5.70;;;5.20;;
13408;SDS011;6775;49.574;11.170;2023-06-26T09:49:06;6.17;;;5.63;;
13408;SDS011;6775;49.574;11.170;2023-06-26T09:51:37;6.33;;;5.60;;
13408;SDS011;6775;49.574;11.170;2023-06-26T09:54:06;6.73;;;6.07;;
13408;SDS011;6775;49.574;11.170;2023-06-26T09:56:35;6.93;;;6.07;;
13408;SDS011;6775;49.574;11.170;2023-06-26T09:59:03;6.63;;;5.93;;
13408;SDS011;6775;49.574;11.170;2023-06-26T10:01:36;6.23;;;5.67;;
13408;SDS011;6775;49.574;11.170;2023-06-26T10:04:07;6.17;;;5.57;;
13408;SDS011;6775;49.574;11.170;2023-06-26T10:06:36;6.27;;;5.67;;
13408;SDS011;6775;49.574;11.170;2023-06-26T10:09:06;7.23;;;5.73;;
13408;SDS011;6775;49.574;11.170;2023-06-26T10:11:36;6.23;;;5.63;;
13408;SDS011;6775;49.574;11.170;2023-06-26T10:14:08;6.70;;;5.90;;
13408;SDS011;6775;49.574;11.170;2023-06-26T10:16:46;6.67;;;5.77;;
13408;SDS011;6775;49.574;11.170;2023-06-26T10:19:16;5.70;;;5.20;;
13408;SDS011;6775;49.574;11.170;2023-06-26T10:21:50;5.70;;;5.10;;
13408;SDS011;6775;49.574;11.170;2023-06-26T10:24:20;5.87;;;5.27;;
13408;SDS011;6775;49.574;11.170;2023-06-26T10:26:50;5.60;;;5.10;;
13408;SDS011;6775;49.574;11.170;2023-06-26T10:29:22;5.87;;;5.33;;
13408;SDS011;6775;49.574;11.170;2023-06-26T10:31:54;5.23;;;4.73;;
13408;SDS011;6775;49.574;11.170;2023-06-26T10:34:29;5.80;;;4.80;;
13408;SDS011;6775;49.574;11.170;2023-06-26T10:37:00;5.97;;;5.10;;
13408;SDS011;6775;49.574;11.170;2023-06-26T10:39:33;5.40;;;4.90;;
13408;SDS011;6775;49.574;11.170;2023-06-26T10:42:14;5.10;;;4.70;;
13408;SDS011;6775;49.574;11.170;2023-06-26T10:44:43;6.97;;;6.27;;
13408;SDS011;6775;49.574;11.170;2023-06-26T10:47:28;5.60;;;5.10;;
13408;SDS011;6775;49.574;11.170;2023-06-26T10:49:57;6.10;;;5.40;;
13408;SDS011;6775;49.574;11.170;2023-06-26T10:53:07;5.70;;;5.20;;
13408;SDS011;6775;49.574;11.170;2023-06-26T10:55:44;5.40;;;4.90;;
13408;SDS011;6775;49.574;11.170;2023-06-26T10:58:31;5.00;;;4.60;;
13408;SDS011;6775;49.574;11.170;2023-06-26T11:01:22;5.00;;;4.50;;
13408;SDS011;6775;49.574;11.170;2023-06-26T11:04:04;5.37;;;4.87;;
13408;SDS011;6775;49.574;11.170;2023-06-26T11:06:33;5.47;;;5.00;;
13408;SDS011;6775;49.574;11.170;2023-06-26T11:09:08;4.80;;;4.40;;
13408;SDS011;6775;49.574;11.170;2023-06-26T11:14:33;5.23;;;4.73;;
13408;SDS011;6775;49.574;11.170;2023-06-26T11:17:02;5.47;;;4.93;;
13408;SDS011;6775;49.574;11.170;2023-06-26T11:19:32;5.30;;;4.80;;
13408;SDS011;6775;49.574;11.170;2023-06-26T11:22:04;4.47;;;4.07;;
13408;SDS011;6775;49.574;11.170;2023-06-26T11:24:32;5.10;;;4.60;;
13408;SDS011;6775;49.574;11.170;2023-06-26T11:27:01;4.57;;;4.17;;
13408;SDS011;6775;49.574;11.170;2023-06-26T11:29:31;4.70;;;4.30;;
13408;SDS011;6775;49.574;11.170;2023-06-26T11:32:00;4.60;;;4.20;;
13408;SDS011;6775;49.574;11.170;2023-06-26T11:34:33;4.87;;;4.47;;
13408;SDS011;6775;49.574;11.170;2023-06-26T11:37:01;4.73;;;4.33;;
13408;SDS011;6775;49.574;11.170;2023-06-26T11:39:30;4.63;;;4.23;;
13408;SDS011;6775;49.574;11.170;2023-06-26T11:41:58;4.60;;;4.20;;
13408;SDS011;6775;49.574;11.170;2023-06-26T11:44:29;4.63;;;4.20;;
13408;SDS011;6775;49.574;11.170;2023-06-26T11:46:57;4.43;;;4.03;;
13408;SDS011;6775;49.574;11.170;2023-06-26T11:49:25;5.17;;;4.47;;
13408;SDS011;6775;49.574;11.170;2023-06-26T11:51:56;5.30;;;4.80;;
13408;SDS011;6775;49.574;11.170;2023-06-26T11:54:25;5.07;;;4.67;;
13408;SDS011;6775;49.574;11.170;2023-06-26T11:56:54;4.63;;;4.20;;
13408;SDS011;6775;49.574;11.170;2023-06-26T11:59:32;4.70;;;4.30;;
13408;SDS011;6775;49.574;11.170;2023-06-26T12:02:04;4.77;;;4.37;;
13408;SDS011;6775;49.574;11.170;2023-06-26T12:04:33;4.80;;;4.27;;
13408;SDS011;6775;49.574;11.170;2023-06-26T12:07:04;5.30;;;4.80;;
13408;SDS011;6775;49.574;11.170;2023-06-26T12:09:37;5.17;;;4.67;;
13408;SDS011;6775;49.574;11.170;2023-06-26T12:12:07;4.60;;;4.20;;
13408;SDS011;6775;49.574;11.170;2023-06-26T12:14:35;4.90;;;4.43;;
13408;SDS011;6775;49.574;11.170;2023-06-26T12:17:04;5.10;;;4.70;;
13408;SDS011;6775;49.574;11.170;2023-06-26T12:19:36;5.00;;;4.60;;
13408;SDS011;6775;49.574;11.170;2023-06-26T12:22:09;5.07;;;4.57;;
13408;SDS011;6775;49.574;11.170;2023-06-26T12:24:38;4.80;;;4.30;;
13408;SDS011;6775;49.574;11.170;2023-06-26T12:27:10;4.50;;;4.10;;
13408;SDS011;6775;49.574;11.170;2023-06-26T12:29:39;4.60;;;4.20;;
13408;SDS011;6775;49.574;11.170;2023-06-26T12:32:08;3.93;;;3.63;;
13408;SDS011;6775;49.574;11.170;2023-06-26T12:34:38;4.50;;;4.10;;
13408;SDS011;6775;49.574;11.170;2023-06-26T12:37:07;4.20;;;3.80;;
13408;SDS011;6775;49.574;11.170;2023-06-26T12:39:47;4.07;;;3.67;;
13408;SDS011;6775;49.574;11.170;2023-06-26T12:42:16;3.70;;;3.40;;
13408;SDS011;6775;49.574;11.170;2023-06-26T12:44:45;4.37;;;3.97;;
13408;SDS011;6775;49.574;11.170;2023-06-26T12:47:14;4.13;;;3.73;;
13408;SDS011;6775;49.574;11.170;2023-06-26T12:49:43;4.60;;;4.03;;
13408;SDS011;6775;49.574;11.170;2023-06-26T12:52:14;4.00;;;3.70;;
13408;SDS011;6775;49.574;11.170;2023-06-26T12:54:43;4.17;;;3.73;;
13408;SDS011;6775;49.574;11.170;2023-06-26T12:57:13;4.33;;;3.93;;
13408;SDS011;6775;49.574;11.170;2023-06-26T12:59:41;4.30;;;3.70;;
13408;SDS011;6775;49.574;11.170;2023-06-26T13:02:09;3.80;;;3.50;;
13408;SDS011;6775;49.574;11.170;2023-06-26T13:04:38;3.67;;;3.33;;
13408;SDS011;6775;49.574;11.170;2023-06-26T13:07:07;4.30;;;4.00;;
13408;SDS011;6775;49.574;11.170;2023-06-26T13:09:36;4.97;;;4.57;;
13408;SDS011;6775;49.574;11.170;2023-06-26T13:12:05;4.07;;;3.70;;
13408;SDS011;6775;49.574;11.170;2023-06-26T13:14:35;4.27;;;3.87;;
13408;SDS011;6775;49.574;11.170;2023-06-26T13:17:04;4.77;;;4.37;;
13408;SDS011;6775;49.574;11.170;2023-06-26T13:19:35;4.17;;;3.87;;
13408;SDS011;6775;49.574;11.170;2023-06-26T13:22:03;3.97;;;3.57;;
13408;SDS011;6775;49.574;11.170;2023-06-26T13:24:31;4.63;;;4.00;;
13408;SDS011;6775;49.574;11.170;2023-06-26T13:27:00;4.47;;;4.07;;
13408;SDS011;6775;49.574;11.170;2023-06-26T13:29:28;4.77;;;4.33;;
13408;SDS011;6775;49.574;11.170;2023-06-26T13:31:56;4.57;;;4.10;;
13408;SDS011;6775;49.574;11.170;2023-06-26T13:34:24;4.10;;;3.80;;
13408;SDS011;6775;49.574;11.170;2023-06-26T13:36:56;4.57;;;4.17;;
13408;SDS011;6775;49.574;11.170;2023-06-26T13:39:25;4.10;;;3.80;;
13408;SDS011;6775;49.574;11.170;2023-06-26T13:41:53;4.63;;;4.23;;
13408;SDS011;6775;49.574;11.170;2023-06-26T13:44:22;4.43;;;4.03;;
13408;SDS011;6775;49.574;11.170;2023-06-26T13:47:04;6.00;;;5.00;;
13408;SDS011;6775;49.574;11.170;2023-06-26T13:49:35;5.43;;;4.27;;
13408;SDS011;6775;49.574;11.170;2023-06-26T13:52:03;5.17;;;4.77;;
13408;SDS011;6775;49.574;11.170;2023-06-26T13:54:33;4.97;;;4.57;;
13408;SDS011;6775;49.574;11.170;2023-06-26T13:57:01;4.70;;;4.30;;
13408;SDS011;6775;49.574;11.170;2023-06-26T13:59:32;4.80;;;4.40;;
13408;SDS011;6775;49.574;11.170;2023-06-26T14:02:00;5.00;;;4.50;;
13408;SDS011;6775;49.574;11.170;2023-06-26T14:04:28;4.70;;;4.30;;
13408;SDS011;6775;49.574;11.170;2023-06-26T14:06:56;5.07;;;4.67;;
13408;SDS011;6775;49.574;11.170;2023-06-26T14:09:24;6.17;;;5.23;;
13408;SDS011;6775;49.574;11.170;2023-06-26T14:11:52;5.03;;;4.60;;
13408;SDS011;6775;49.574;11.170;2023-06-26T14:14:20;5.43;;;4.93;;
13408;SDS011;6775;49.574;11.170;2023-06-26T14:16:49;4.73;;;4.33;;
13408;SDS011;6775;49.574;11.170;2023-06-26T14:19:17;5.00;;;4.60;;
13408;SDS011;6775;49.574;11.170;2023-06-26T14:21:45;5.27;;;4.80;;
13408;SDS011;6775;49.574;11.170;2023-06-26T14:24:13;4.70;;;4.30;;
13408;SDS011;6775;49.574;11.170;2023-06-26T14:26:41;5.57;;;5.07;;
13408;SDS011;6775;49.574;11.170;2023-06-26T14:29:09;5.37;;;4.87;;
13408;SDS011;6775;49.574;11.170;2023-06-26T14:31:37;4.80;;;4.40;;
13408;SDS011;6775;49.574;11.170;2023-06-26T14:34:06;5.80;;;5.23;;
13408;SDS011;6775;49.574;11.170;2023-06-26T14:36:34;6.03;;;5.10;;
13408;SDS011;6775;49.574;11.170;2023-06-26T14:39:03;5.27;;;4.80;;
13408;SDS011;6775;49.574;11.170;2023-06-26T14:41:32;5.47;;;5.00;;
13408;SDS011;6775;49.574;11.170;2023-06-26T14:44:01;5.27;;;4.77;;
13408;SDS011;6775;49.574;11.170;2023-06-26T14:46:29;5.40;;;4.90;;
13408;SDS011;6775;49.574;11.170;2023-06-26T14:48:57;5.30;;;4.83;;
13408;SDS011;6775;49.574;11.170;2023-06-26T14:51:26;4.77;;;4.37;;
13408;SDS011;6775;49.574;11.170;2023-06-26T14:53:54;5.50;;;5.00;;
13408;SDS011;6775;49.574;11.170;2023-06-26T14:56:22;5.10;;;4.67;;
13408;SDS011;6775;49.574;11.170;2023-06-26T14:58:50;5.40;;;4.90;;
13408;SDS011;6775;49.574;11.170;2023-06-26T15:01:19;4.77;;;4.37;;
13408;SDS011;6775;49.574;11.170;2023-06-26T15:03:48;5.40;;;4.90;;